Time;durP1;ratioP1;P1;durP2;ratioP2;P2;SDS_P1;SDS_P2;PMS_P1;PMS_P2;Temp;Humidity;BMP_temperature;BMP_pressure;BME280_temperature;BME280_humidity;BME280_pressure;Samples;Min_cycle;Max_cycle;Signal;HPM_P1;HPM_P2
2022/07/26 00:00:00;;;;;;;2.13;1.90;;;;;;;22.93;43.45;100661.75;847933;23;1361;-91
2022/07/26 00:00:23;;;;;;;2.63;2.10;;;;;;;22.90;43.51;100655.63;851841;23;1276;-91
2022/07/26 00:00:48;;;;;;;2.80;2.13;;;;;;;22.93;43.31;100656.44;847970;23;1296;-93
2022/07/26 00:01:20;;;;;;;2.20;1.90;;;;;;;22.93;43.62;100661.75;852167;23;1105;-94
2022/07/26 00:01:43;;;;;;;2.30;2.10;;;;;;;22.97;43.41;100668.75;852177;23;1248;-91
2022/07/26 00:02:07;;;;;;;2.55;2.03;;;;;;;22.95;43.42;100665.28;856420;23;1203;-94
2022/07/26 00:02:30;;;;;;;2.75;2.00;;;;;;;22.98;43.31;100658.97;852539;23;1131;-93
2022/07/26 00:02:53;;;;;;;2.80;1.90;;;;;;;22.91;43.55;100658.25;848567;23;1240;-92
2022/07/26 00:03:24;;;;;;;2.20;1.90;;;;;;;22.80;43.60;100644.38;856845;23;1607;-94
2022/07/26 00:03:47;;;;;;;2.28;1.90;;;;;;;22.91;43.81;100662.72;848359;23;1182;-92
2022/07/26 00:04:10;;;;;;;3.00;2.10;;;;;;;22.86;43.68;100653.06;852215;23;1191;-95
2022/07/26 00:04:43;;;;;;;3.20;2.20;;;;;;;22.83;43.53;100654.94;856664;23;1457;-93
2022/07/26 00:05:07;;;;;;;3.38;2.10;;;;;;;22.80;43.73;100649.69;848455;23;1191;-95
2022/07/26 00:05:30;;;;;;;3.30;2.30;;;;;;;22.80;43.62;100644.38;856832;23;1209;-94
2022/07/26 00:05:51;;;;;;;3.28;2.30;;;;;;;22.84;43.98;100656.69;852742;23;1496;-92
2022/07/26 00:06:12;;;;;;;3.50;2.10;;;;;;;22.87;43.59;100653.97;848473;23;1224;-96
2022/07/26 00:06:44;;;;;;;4.03;2.17;;;;;;;22.80;44.14;100655.03;848071;23;1212;-92
2022/07/26 00:07:20;;;;;;;2.45;1.85;;;;;;;22.86;44.02;100662.81;852339;23;1228;-91
2022/07/26 00:07:44;;;;;;;2.38;2.15;;;;;;;22.81;44.06;100659.44;852527;23;1270;-93
2022/07/26 00:08:10;;;;;;;2.50;2.30;;;;;;;22.77;44.11;100655.97;848224;23;1287;-91
2022/07/26 00:08:34;;;;;;;3.20;2.20;;;;;;;22.77;44.10;100644.44;856640;23;1231;-93
2022/07/26 00:08:57;;;;;;;2.58;2.00;;;;;;;22.76;44.25;100648.91;852906;23;1249;-93
2022/07/26 00:09:18;;;;;;;2.63;2.00;;;;;;;22.79;44.34;100653.28;860733;23;1203;-91
2022/07/26 00:09:43;;;;;;;3.38;2.03;;;;;;;22.78;44.29;100651.50;852005;23;1952;-91
2022/07/26 00:10:07;;;;;;;3.10;2.10;;;;;;;22.86;44.24;100665.47;852806;23;1231;-92
2022/07/26 00:11:27;;;;;;;2.92;2.00;;;;;;;22.80;44.45;100655.03;844314;23;1119;-94
2022/07/26 00:11:53;;;;;;;4.47;2.10;;;;;;;22.81;44.23;100656.75;861240;23;1196;-94
2022/07/26 00:12:16;;;;;;;4.38;2.38;;;;;;;22.87;44.37;100672.56;848597;23;1225;-92
2022/07/26 00:12:39;;;;;;;3.97;2.30;;;;;;;22.75;44.20;100647.16;853482;23;1250;-93
2022/07/26 00:13:00;;;;;;;4.10;2.25;;;;;;;22.78;44.40;100656.81;856351;23;1207;-92
2022/07/26 00:13:21;;;;;;;5.00;2.40;;;;;;;22.77;44.60;100657.75;852713;23;1135;-92
2022/07/26 00:13:59;;;;;;;5.90;2.35;;;;;;;22.71;44.65;100646.38;852802;23;1349;-93
2022/07/26 00:14:36;;;;;;;4.93;2.42;;;;;;;22.80;44.63;100666.50;852669;23;1561;-94
2022/07/26 00:15:05;;;;;;;4.68;2.50;;;;;;;22.76;44.67;100648.00;848731;23;1279;-94
2022/07/26 00:15:39;;;;;;;4.57;2.25;;;;;;;22.80;44.69;100661.19;852652;23;1285;-92
2022/07/26 00:16:13;;;;;;;3.45;2.10;;;;;;;22.80;44.75;100670.97;852392;23;1225;-91
2022/07/26 00:16:35;;;;;;;3.55;2.30;;;;;;;22.68;44.65;100651.75;861249;23;1354;-93
2022/07/26 00:17:01;;;;;;;4.05;2.50;;;;;;;22.70;44.79;100643.72;856107;23;1321;-92
2022/07/26 00:17:36;;;;;;;4.45;2.47;;;;;;;22.78;44.74;100664.81;848674;23;1181;-93
2022/07/26 00:18:01;;;;;;;3.90;2.30;;;;;;;22.73;44.84;100654.28;853184;23;1290;-92
2022/07/26 00:18:27;;;;;;;3.60;2.20;;;;;;;22.70;44.70;100649.03;851930;23;1306;-92
2022/07/26 00:18:58;;;;;;;3.75;2.20;;;;;;;22.76;45.04;100661.31;852890;23;1287;-91
2022/07/26 00:19:21;;;;;;;4.43;2.08;;;;;;;22.69;45.20;100652.63;856794;23;1269;-91
2022/07/26 00:19:42;;;;;;;4.45;2.28;;;;;;;22.75;45.02;100668.44;847940;23;1318;-92
2022/07/26 00:20:16;;;;;;;6.43;2.47;;;;;;;22.74;45.23;100658.69;852469;23;1322;-91
2022/07/26 00:20:49;;;;;;;6.60;2.47;;;;;;;22.67;44.97;100650.00;856455;23;1256;-93
2022/07/26 00:21:18;;;;;;;4.90;2.20;;;;;;;22.73;45.29;100649.84;848460;23;1230;-94
2022/07/26 00:21:48;;;;;;;3.72;2.10;;;;;;;22.74;45.12;100662.22;848100;23;1255;-92
2022/07/26 00:22:48;;;;;;;4.70;2.40;;;;;;;22.75;45.18;100660.47;847691;23;1276;-92
2022/07/26 00:23:09;;;;;;;3.88;2.40;;;;;;;22.68;45.43;100651.75;848212;23;1244;-94
2022/07/26 00:23:38;;;;;;;2.58;2.30;;;;;;;22.66;45.37;100652.69;852485;23;1181;-93
2022/07/26 00:24:08;;;;;;;4.00;2.50;;;;;;;22.73;45.42;100656.94;852553;23;1126;-93
2022/07/26 00:24:55;;;;;;;6.00;2.53;;;;;;;22.60;45.55;100638.66;844315;23;1274;-93
2022/07/26 00:25:16;;;;;;;4.35;2.50;;;;;;;22.69;45.37;100648.16;856161;23;1198;-92
2022/07/26 00:25:54;;;;;;;3.63;2.25;;;;;;;22.63;45.54;100648.34;851942;23;1247;-89
2022/07/26 00:26:20;;;;;;;3.38;2.10;;;;;;;22.67;45.57;100657.97;852240;23;1279;-94
2022/07/26 00:26:46;;;;;;;3.72;2.20;;;;;;;22.62;45.69;100643.03;848093;23;1338;-92
2022/07/26 00:27:09;;;;;;;4.60;2.20;;;;;;;22.73;45.42;100656.94;844207;23;1097;-95
2022/07/26 00:27:35;;;;;;;4.68;2.10;;;;;;;22.69;45.61;100649.97;844587;23;1285;-92
2022/07/26 00:27:56;;;;;;;5.47;2.10;;;;;;;22.64;45.32;100644.75;852311;23;1233;-94
2022/07/26 00:28:22;;;;;;;5.13;2.20;;;;;;;22.68;45.63;100646.41;852210;23;1200;-93
2022/07/26 00:29:04;;;;;;;4.18;2.30;;;;;;;22.76;45.64;100658.66;848072;23;1241;-93
2022/07/26 00:29:25;;;;;;;5.38;2.28;;;;;;;22.71;45.38;100657.00;852144;23;1198;-92
2022/07/26 00:29:58;;;;;;;5.18;2.20;;;;;;;22.70;45.74;100655.22;853774;23;895;-92
2022/07/26 00:30:24;;;;;;;3.90;2.30;;;;;;;22.58;45.66;100644.91;847906;23;1229;-93
2022/07/26 00:31:28;;;;;;;5.57;2.20;;;;;;;22.64;45.91;100666.03;836233;23;1086;-92
2022/07/26 00:31:54;;;;;;;4.85;2.30;;;;;;;22.68;45.94;100659.72;852341;23;1230;-93
2022/07/26 00:32:17;;;;;;;4.65;2.40;;;;;;;22.56;46.02;100639.63;851996;23;1360;-93
2022/07/26 00:32:45;;;;;;;5.03;2.50;;;;;;;22.54;45.86;100641.44;852707;23;1202;-94
2022/07/26 00:33:15;;;;;;;5.10;2.30;;;;;;;22.64;45.85;100666.03;852480;23;1102;-93
2022/07/26 00:33:36;;;;;;;5.22;2.13;;;;;;;22.61;45.78;100655.47;852513;23;1315;-96
2022/07/26 00:33:57;;;;;;;5.45;2.00;;;;;;;22.71;45.98;100662.31;852777;23;1333;-92
2022/07/26 00:34:27;;;;;;;5.50;2.22;;;;;;;22.71;45.85;100664.09;856136;23;1237;-95
2022/07/26 00:34:51;;;;;;;4.57;2.45;;;;;;;22.60;46.00;100648.41;861065;23;1072;-95
2022/07/26 00:35:17;;;;;;;6.97;2.80;;;;;;;22.67;45.88;100659.78;864996;22;1301;-93
2022/07/26 00:35:50;;;;;;;7.07;2.88;;;;;;;22.58;46.05;100650.22;856614;23;1187;-95
2022/07/26 00:36:11;;;;;;;4.93;2.60;;;;;;;22.64;46.06;100655.41;852267;23;1191;-93
2022/07/26 00:36:34;;;;;;;5.03;2.50;;;;;;;22.60;46.11;100649.28;852065;23;1470;-93
2022/07/26 00:36:58;;;;;;;4.20;2.30;;;;;;;22.58;46.00;100643.09;844364;23;1426;-92
2022/07/26 00:37:24;;;;;;;3.35;2.20;;;;;;;22.56;46.09;100646.75;843927;23;1208;-92
2022/07/26 00:37:47;;;;;;;5.03;2.33;;;;;;;22.58;46.12;100656.41;848379;23;1219;-94
2022/07/26 00:38:10;;;;;;;5.45;2.50;;;;;;;22.62;46.01;100657.19;848197;23;1229;-93
2022/07/26 00:38:39;;;;;;;7.05;2.53;;;;;;;22.58;46.23;100655.53;852624;23;1200;-93
2022/07/26 00:39:24;;;;;;;6.60;2.33;;;;;;;22.60;46.22;100664.34;850056;23;1350;-94
2022/07/26 00:39:56;;;;;;;5.60;2.10;;;;;;;22.54;46.32;100643.22;856674;23;1160;-91
2022/07/26 00:40:17;;;;;;;5.35;2.40;;;;;;;22.53;46.39;100652.09;851847;23;1252;-91
2022/07/26 00:40:38;;;;;;;6.15;2.50;;;;;;;22.57;46.29;100654.66;844183;23;1142;-94
2022/07/26 00:41:04;;;;;;;6.28;2.70;;;;;;;22.52;46.37;100643.28;848268;23;1231;-95
2022/07/26 00:41:25;;;;;;;5.47;2.50;;;;;;;22.54;46.26;100648.53;852368;23;1392;-94
2022/07/26 00:41:49;;;;;;;6.50;2.45;;;;;;;22.45;46.51;100645.19;848417;23;1239;-93
2022/07/26 00:42:10;;;;;;;5.50;2.40;;;;;;;22.53;46.39;100660.97;848174;23;1375;-94
2022/07/26 00:42:33;;;;;;;5.00;2.40;;;;;;;22.46;46.27;100644.28;860581;23;1135;-93
2022/07/26 00:43:03;;;;;;;5.30;2.40;;;;;;;22.51;46.25;100648.63;852267;23;1345;-93
2022/07/26 00:43:27;;;;;;;6.35;2.60;;;;;;;22.42;46.16;100634.63;856583;23;1201;-95
2022/07/26 00:43:55;;;;;;;6.15;2.53;;;;;;;22.40;46.70;100656.84;856563;23;1256;-91
2022/07/26 00:44:21;;;;;;;5.00;2.47;;;;;;;22.46;46.63;100662.03;852207;23;1184;-93
2022/07/26 00:44:46;;;;;;;3.40;2.40;;;;;;;22.41;46.57;100662.13;848338;23;1476;-91
2022/07/26 00:45:11;;;;;;;3.00;2.30;;;;;;;22.35;46.76;100648.09;847784;23;1200;-92
2022/07/26 00:45:32;;;;;;;5.00;2.40;;;;;;;22.39;46.57;100661.31;847877;23;1286;-92
2022/07/26 00:45:52;;;;;;;6.20;2.72;;;;;;;22.38;46.76;100656.88;848134;23;1135;-92
2022/07/26 00:46:16;;;;;;;6.60;2.90;;;;;;;22.35;46.76;100643.66;848278;23;1255;-95
2022/07/26 00:46:40;;;;;;;5.00;2.55;;;;;;;22.35;46.72;100659.63;848358;23;1305;-94
2022/07/26 00:47:15;;;;;;;3.50;2.20;;;;;;;22.22;46.78;100643.03;852428;23;1210;-96
2022/07/26 00:47:54;;;;;;;4.30;2.33;;;;;;;22.22;47.19;100663.41;848429;23;1278;-92
2022/07/26 00:48:20;;;;;;;4.45;2.50;;;;;;;22.13;47.01;100649.44;844232;23;1200;-93
2022/07/26 00:48:46;;;;;;;4.35;2.50;;;;;;;22.17;47.08;100656.44;852771;23;1235;-95
2022/07/26 00:49:12;;;;;;;4.38;2.60;;;;;;;22.06;47.21;100645.16;848373;23;1235;-95
2022/07/26 00:49:48;;;;;;;5.30;2.40;;;;;;;22.11;47.09;100637.97;846107;23;1938;-94
2022/07/26 00:50:18;;;;;;;5.53;2.30;;;;;;;22.05;47.19;100652.28;844065;23;1184;-94
2022/07/26 00:50:40;;;;;;;4.25;2.53;;;;;;;22.08;47.37;100642.47;847050;23;1319;-94
2022/07/26 00:51:26;;;;;;;;;;;;;;;;;;;;;
2022/07/26 00:51:49;;;;;;;4.45;2.63;;;;;;;22.10;47.20;100661.91;848467;23;1325;-94
2022/07/26 00:52:46;;;;;;;4.80;2.53;;;;;;;22.10;47.37;100659.25;848294;23;1303;-96
2022/07/26 00:53:09;;;;;;;4.85;2.33;;;;;;;22.02;47.56;100657.63;856459;23;1431;-95
2022/07/26 00:53:32;;;;;;;5.95;2.50;;;;;;;21.95;47.69;100639.22;852425;23;1392;-93
2022/07/26 00:53:55;;;;;;;6.40;2.70;;;;;;;21.96;47.49;100656.91;852639;23;1311;-95
2022/07/26 00:54:19;;;;;;;5.68;2.70;;;;;;;22.00;47.62;100653.28;848121;23;1373;-93
2022/07/26 00:54:44;;;;;;;5.25;2.70;;;;;;;21.99;47.50;100651.50;856333;23;1183;-92
2022/07/26 00:55:06;;;;;;;5.25;2.50;;;;;;;21.97;47.48;100654.22;856233;23;1223;-90
2022/07/26 00:55:29;;;;;;;5.40;2.50;;;;;;;22.00;47.42;100653.28;852207;23;1198;-94
2022/07/26 00:55:51;;;;;;;5.93;2.40;;;;;;;21.99;47.47;100662.13;864985;22;1211;-91
2022/07/26 00:56:16;;;;;;;6.20;2.55;;;;;;;22.01;47.67;100660.34;848214;23;1318;-94
2022/07/26 00:56:42;;;;;;;5.32;2.35;;;;;;;21.95;47.52;100653.38;848193;23;1274;-91
2022/07/26 00:57:03;;;;;;;5.20;2.30;;;;;;;21.97;47.68;100663.97;860345;23;1179;-93
2022/07/26 00:57:35;;;;;;;5.78;2.47;;;;;;;21.88;48.01;100657.09;848169;23;1250;-94
2022/07/26 00:58:06;;;;;;;5.13;2.30;;;;;;;21.87;47.78;100653.53;852437;23;1223;-92
2022/07/26 00:58:33;;;;;;;4.80;2.20;;;;;;;21.84;47.98;100653.63;852253;23;1344;-92
2022/07/26 00:58:58;;;;;;;5.35;2.55;;;;;;;21.86;47.80;100656.22;852302;23;1217;-95
2022/07/26 00:59:30;;;;;;;6.70;2.60;;;;;;;21.80;47.92;100654.56;860482;23;1185;-93
2022/07/26 00:59:53;;;;;;;5.95;2.42;;;;;;;21.83;48.17;100653.66;852568;23;1237;-92
2022/07/26 01:00:22;;;;;;;4.32;2.40;;;;;;;21.71;48.02;100642.34;847620;23;1272;-91
2022/07/26 01:00:45;;;;;;;5.35;2.47;;;;;;;21.81;48.10;100656.31;852102;23;1333;-93
2022/07/26 01:01:11;;;;;;;5.15;2.40;;;;;;;21.76;48.16;100668.84;852158;23;1103;-95
2022/07/26 01:01:42;;;;;;;5.80;2.30;;;;;;;21.69;48.13;100643.31;856833;23;1148;-94
2022/07/26 01:02:07;;;;;;;6.88;2.70;;;;;;;21.76;48.23;100663.53;851812;23;1058;-91
2022/07/26 01:02:34;;;;;;;6.53;2.80;;;;;;;21.75;48.21;100660.00;852357;23;1289;-93
2022/07/26 01:02:59;;;;;;;4.90;2.58;;;;;;;21.75;48.26;100653.78;852268;23;1392;-93
2022/07/26 01:03:34;;;;;;;5.60;2.33;;;;;;;21.77;48.05;100657.31;848411;23;1421;-92
2022/07/26 01:03:59;;;;;;;4.68;2.20;;;;;;;21.68;48.50;100641.56;848457;23;1588;-94
2022/07/26 01:04:26;;;;;;;4.15;2.15;;;;;;;21.69;48.07;100648.63;848642;23;1214;-96
2022/07/26 01:05:05;;;;;;;4.95;2.40;;;;;;;21.70;48.21;100653.88;852468;23;1275;-93
2022/07/26 01:05:28;;;;;;;4.95;2.40;;;;;;;21.66;48.52;100656.63;852137;23;1317;-93
2022/07/26 01:05:57;;;;;;;4.50;2.38;;;;;;;21.71;48.48;100662.75;844431;23;1257;-94
2022/07/26 01:06:30;;;;;;;3.92;2.60;;;;;;;21.63;48.29;100646.94;860088;23;1315;-91
2022/07/26 01:06:58;;;;;;;6.35;2.75;;;;;;;21.61;48.46;100651.41;856664;23;1279;-93
2022/07/26 01:07:21;;;;;;;7.60;2.60;;;;;;;21.62;48.52;100654.06;847892;23;1371;-93
2022/07/26 01:07:45;;;;;;;5.03;2.10;;;;;;;21.64;48.43;100652.22;852367;23;1311;-92
2022/07/26 01:08:13;;;;;;;3.72;2.10;;;;;;;21.65;48.88;100661.09;860692;23;1280;-94
2022/07/26 01:08:51;;;;;;;3.65;2.30;;;;;;;21.61;48.55;100656.72;860725;23;1420;-92
2022/07/26 01:09:29;;;;;;;4.60;2.55;;;;;;;21.60;48.52;100654.97;856314;23;1307;-91
2022/07/26 01:09:54;;;;;;;5.15;2.55;;;;;;;21.62;48.80;100658.47;847948;23;1905;-93
2022/07/26 01:10:24;;;;;;;5.10;2.60;;;;;;;21.64;48.60;100665.50;847815;23;1216;-92
2022/07/26 01:11:16;;;;;;;5.53;2.50;;;;;;;21.66;48.75;100664.59;852424;23;1275;-92
2022/07/26 01:11:45;;;;;;;4.10;2.45;;;;;;;21.58;48.86;100662.13;847920;23;1300;-92
2022/07/26 01:12:26;;;;;;;4.63;2.40;;;;;;;21.58;48.80;100657.66;844019;23;1382;-92
2022/07/26 01:12:50;;;;;;;6.00;2.40;;;;;;;21.53;48.96;100653.34;850152;23;1325;-92
2022/07/26 01:13:29;;;;;;;7.25;2.70;;;;;;;21.48;48.93;100656.97;848175;23;1396;-92
2022/07/26 01:14:12;;;;;;;4.88;2.60;;;;;;;21.48;49.07;100656.06;848194;23;1267;-92
2022/07/26 01:14:42;;;;;;;6.28;2.60;;;;;;;21.50;49.00;100663.13;851850;23;1324;-92
2022/07/26 01:15:14;;;;;;;6.28;2.70;;;;;;;21.42;48.91;100646.47;848087;23;1204;-91
2022/07/26 01:15:35;;;;;;;7.93;2.55;;;;;;;21.47;49.14;100660.50;848237;23;1272;-92
2022/07/26 01:16:08;;;;;;;9.20;2.35;;;;;;;21.43;49.31;100655.28;856379;23;1279;-92
2022/07/26 01:16:32;;;;;;;5.65;2.10;;;;;;;21.33;49.31;100642.19;852173;23;1251;-93
2022/07/26 01:17:13;;;;;;;7.65;2.67;;;;;;;21.33;49.17;100646.63;852221;23;1299;-94
2022/07/26 01:17:46;;;;;;;;;;;;;;;;;;;;;
2022/07/26 01:18:20;;;;;;;4.00;2.90;;;;;;;21.34;49.53;100651.91;859626;23;1138;-92
2022/07/26 01:18:50;;;;;;;4.22;2.50;;;;;;;21.40;49.50;100660.66;853580;23;1325;-92
2022/07/26 01:19:19;;;;;;;4.68;2.40;;;;;;;21.36;49.67;100663.38;856258;23;1097;-92
2022/07/26 01:19:55;;;;;;;5.80;2.70;;;;;;;21.26;49.45;100645.84;848308;23;1264;-92
2022/07/26 01:20:28;;;;;;;6.03;2.83;;;;;;;21.24;49.69;100650.31;848032;23;1349;-92
2022/07/26 01:21:02;;;;;;;9.32;2.67;;;;;;;21.21;49.64;100647.75;848262;23;1415;-92
2022/07/26 01:21:45;;;;;;;;;;;;;;;;;;;;;
2022/07/26 01:22:09;;;;;;;5.30;2.60;;;;;;;21.27;49.93;100663.53;847985;23;1382;-93
2022/07/26 01:22:49;;;;;;;5.88;2.70;;;;;;;21.16;49.84;100644.28;849406;23;1026;-92
2022/07/26 01:23:20;;;;;;;7.18;3.00;;;;;;;21.18;49.90;100658.38;848083;23;1469;-92
2022/07/26 01:23:56;;;;;;;5.43;2.75;;;;;;;21.18;50.14;100658.38;849923;23;1000;-92
2022/07/26 01:24:27;;;;;;;5.93;2.60;;;;;;;21.18;50.16;100658.38;852142;23;1294;-93
2022/07/26 01:25:08;;;;;;;6.75;2.33;;;;;;;21.08;50.16;100641.75;848051;23;1279;-92
2022/07/26 01:25:44;;;;;;;5.75;2.55;;;;;;;21.15;49.88;100647.84;847900;23;1212;-92
2022/07/26 01:26:07;;;;;;;5.25;2.60;;;;;;;21.20;50.00;100654.81;847508;23;1233;-93
2022/07/26 01:26:45;;;;;;;5.35;2.60;;;;;;;21.16;49.98;100649.59;856591;23;1286;-93
2022/07/26 01:27:23;;;;;;;6.38;2.90;;;;;;;21.18;50.28;100663.69;860790;23;1163;-93
2022/07/26 01:27:56;;;;;;;5.55;2.83;;;;;;;21.15;50.16;100661.97;848392;23;1400;-94
2022/07/26 01:28:20;;;;;;;4.20;2.60;;;;;;;21.08;50.21;100647.94;852382;23;1514;-92
2022/07/26 01:28:48;;;;;;;4.32;2.58;;;;;;;21.09;50.18;100655.00;860335;23;1219;-92
2022/07/26 01:29:17;;;;;;;6.95;2.70;;;;;;;20.97;50.50;100644.63;856058;23;1412;-93
2022/07/26 01:29:48;;;;;;;8.27;3.00;;;;;;;20.97;50.48;100649.94;847498;23;1933;-91
2022/07/26 01:30:14;;;;;;;6.70;2.90;;;;;;;20.93;50.20;100642.91;851831;23;1334;-92
2022/07/26 01:30:39;;;;;;;6.05;2.60;;;;;;;20.98;50.55;100662.28;852211;23;1323;-92
2022/07/26 01:31:13;;;;;;;7.75;2.80;;;;;;;21.03;50.33;100655.09;851809;23;1325;-93
2022/07/26 01:31:55;;;;;;;6.68;2.80;;;;;;;21.04;50.21;100651.56;860397;23;1214;-92
2022/07/26 01:32:23;;;;;;;4.80;2.40;;;;;;;21.07;50.45;100655.94;848128;23;1393;-92
2022/07/26 01:32:53;;;;;;;4.90;2.50;;;;;;;20.99;50.33;100650.78;848162;23;1149;-92
2022/07/26 01:33:19;;;;;;;6.50;2.70;;;;;;;21.01;50.15;100650.75;844174;23;1321;-92
2022/07/26 01:33:47;;;;;;;6.10;2.67;;;;;;;20.97;50.33;100652.59;852656;23;1368;-95
2022/07/26 01:34:11;;;;;;;5.47;2.75;;;;;;;21.00;50.41;100649.88;852672;23;1346;-91
2022/07/26 01:34:47;;;;;;;;;;;;;;;;;;;;;
2022/07/26 01:35:13;;;;;;;4.10;2.53;;;;;;;20.92;50.42;100642.06;848286;23;1485;-93
2022/07/26 01:35:34;;;;;;;4.40;2.70;;;;;;;20.92;50.28;100647.38;848181;23;1196;-92
2022/07/26 01:36:16;;;;;;;;;;;;;;;;;;;;;
2022/07/26 01:36:47;;;;;;;3.80;2.80;;;;;;;20.92;50.53;100652.66;844238;23;1196;-93
2022/07/26 01:37:12;;;;;;;6.70;3.10;;;;;;;20.87;50.54;100648.31;844224;23;1177;-94
2022/07/26 01:37:54;;;;;;;8.32;3.28;;;;;;;20.87;50.49;100643.91;848367;23;1197;-92
2022/07/26 01:38:24;;;;;;;6.68;3.08;;;;;;;20.94;50.50;100649.97;852213;23;1374;-93
2022/07/26 01:39:00;;;;;;;3.53;2.38;;;;;;;20.97;50.67;100663.19;852331;23;1310;-92
2022/07/26 01:39:26;;;;;;;5.20;2.60;;;;;;;20.91;50.72;100660.63;852139;23;1291;-92
2022/07/26 01:40:03;;;;;;;6.57;2.90;;;;;;;20.90;50.58;100653.59;848378;23;1243;-94
2022/07/26 01:40:48;;;;;;;5.03;2.75;;;;;;;20.89;50.57;100657.16;855744;23;1268;-92
2022/07/26 01:41:35;;;;;;;;;;;;;;;;;;;;;
2022/07/26 01:42:01;;;;;;;4.70;2.83;;;;;;;20.90;50.65;100659.75;844389;23;1229;-94
2022/07/26 01:42:40;;;;;;;6.00;2.60;;;;;;;20.83;50.72;100647.50;848265;23;1360;-93
2022/07/26 01:43:05;;;;;;;5.10;2.58;;;;;;;20.92;50.59;100657.09;848269;23;1372;-91
2022/07/26 01:43:26;;;;;;;4.18;2.50;;;;;;;20.88;50.59;100655.38;852542;23;1253;-91
2022/07/26 01:43:51;;;;;;;5.22;2.78;;;;;;;20.81;50.65;100644.88;856427;23;1254;-93
2022/07/26 01:44:21;;;;;;;6.55;3.20;;;;;;;20.88;50.52;100655.38;856190;23;1258;-90
2022/07/26 01:44:52;;;;;;;4.80;2.80;;;;;;;20.91;50.32;100661.50;852343;23;1114;-93
2022/07/26 01:45:19;;;;;;;4.10;2.50;;;;;;;20.89;50.53;100652.69;843509;23;1184;-92
2022/07/26 01:45:49;;;;;;;5.97;2.60;;;;;;;20.90;50.60;100659.75;853690;23;1312;-91
2022/07/26 01:46:28;;;;;;;;;;;;;;;;;;;;;
2022/07/26 01:46:56;;;;;;;5.07;2.70;;;;;;;20.85;50.62;100658.97;848173;23;1255;-93
2022/07/26 01:47:22;;;;;;;5.93;2.80;;;;;;;20.78;50.57;100646.72;848061;23;1327;-92
2022/07/26 01:48:13;;;;;;;;;;;;;;;;;;;;;
2022/07/26 01:48:49;;;;;;;4.22;2.72;;;;;;;20.75;50.79;100647.63;848177;23;1311;-92
2022/07/26 01:49:19;;;;;;;4.90;2.80;;;;;;;20.79;50.63;100653.78;849455;23;968;-92
2022/07/26 01:49:43;;;;;;;6.15;3.00;;;;;;;20.81;50.76;100655.50;847626;23;1906;-92
2022/07/26 01:50:06;;;;;;;6.32;2.70;;;;;;;20.86;50.86;100667.78;847817;23;1230;-92
2022/07/26 01:50:30;;;;;;;5.53;2.50;;;;;;;20.79;50.83;100661.72;856397;23;1195;-89
2022/07/26 01:51:01;;;;;;;4.43;2.75;;;;;;;20.84;50.72;100664.28;860281;23;1219;-92
2022/07/26 01:51:34;;;;;;;5.95;2.80;;;;;;;20.79;50.78;100657.28;856692;23;1175;-94
2022/07/26 01:52:12;;;;;;;5.68;2.50;;;;;;;20.72;50.94;100650.31;853732;23;1001;-93
2022/07/26 01:52:50;;;;;;;3.45;2.60;;;;;;;20.74;50.82;100642.34;848065;23;1452;-93
2022/07/26 01:53:23;;;;;;;5.65;3.00;;;;;;;20.76;50.83;100649.38;848419;23;1499;-94
2022/07/26 01:53:44;;;;;;;7.75;3.42;;;;;;;20.87;50.84;100669.53;860735;23;1349;-92
2022/07/26 01:54:38;;;;;;;8.60;3.20;;;;;;;20.75;50.79;100655.59;855871;23;1257;-92
2022/07/26 01:55:07;;;;;;;5.88;2.78;;;;;;;20.70;50.79;100649.47;847790;23;1362;-92
2022/07/26 01:55:37;;;;;;;5.13;2.90;;;;;;;20.75;50.85;100655.59;856481;23;1439;-92
2022/07/26 01:56:16;;;;;;;5.10;2.80;;;;;;;20.67;50.95;100650.38;847831;23;1285;-91
2022/07/26 01:56:48;;;;;;;7.50;2.90;;;;;;;20.73;51.13;100660.06;847966;23;1193;-92
2022/07/26 01:57:09;;;;;;;8.20;2.67;;;;;;;20.74;50.90;100664.47;860740;23;1177;-92
2022/07/26 01:57:41;;;;;;;6.82;2.60;;;;;;;20.72;51.00;100662.72;860622;23;1239;-92
2022/07/26 01:58:16;;;;;;;5.40;2.72;;;;;;;20.74;51.19;100669.75;852099;23;1149;-92
2022/07/26 01:59:00;;;;;;;5.82;2.83;;;;;;;20.62;51.23;100649.59;848420;23;1266;-94
2022/07/26 01:59:54;;;;;;;6.72;2.88;;;;;;;20.60;51.22;100656.66;844255;23;1184;-94
2022/07/26 02:00:30;;;;;;;6.10;3.20;;;;;;;20.67;51.10;100662.75;847818;23;1298;-93
2022/07/26 02:01:01;;;;;;;6.45;2.72;;;;;;;20.70;51.17;100657.44;847992;23;1448;-93
2022/07/26 02:01:44;;;;;;;5.53;2.63;;;;;;;20.78;50.96;100671.44;848122;23;1192;-91
2022/07/26 02:02:32;;;;;;;;;;;;;;;;;;;;;
2022/07/26 02:03:10;;;;;;;4.07;2.70;;;;;;;20.79;51.29;100667.88;852547;23;1254;-91
2022/07/26 02:03:36;;;;;;;4.50;2.80;;;;;;;20.71;51.05;100648.56;847910;23;1315;-92
2022/07/26 02:04:57;;;;;;;5.05;2.78;;;;;;;20.79;50.95;100656.41;847850;23;1248;-92
2022/07/26 02:05:13;;;;;;;;;;;;;;;;;;;;;
2022/07/26 02:05:37;;;;;;;4.65;2.80;;;;;;;20.78;51.03;100666.13;848534;23;1380;-92
2022/07/26 02:06:13;;;;;;;5.72;2.95;;;;;;;20.77;51.08;100647.63;847738;23;1202;-92
2022/07/26 02:06:49;;;;;;;5.18;3.20;;;;;;;20.88;50.89;100671.28;856445;23;1211;-91
2022/07/26 02:07:10;;;;;;;5.87;3.27;;;;;;;20.88;50.76;100665.97;860528;23;1222;-91
2022/07/26 02:07:43;;;;;;;7.63;3.10;;;;;;;20.90;50.87;100662.41;848160;23;1345;-93
2022/07/26 02:08:04;;;;;;;8.98;3.08;;;;;;;20.87;50.85;100665.13;847867;23;1319;-93
2022/07/26 02:08:27;;;;;;;7.45;2.90;;;;;;;20.98;50.71;100662.28;852660;23;1202;-94
2022/07/26 02:08:50;;;;;;;7.00;2.75;;;;;;;20.94;50.42;100656.16;848266;23;1118;-92
2022/07/26 02:09:21;;;;;;;6.50;2.90;;;;;;;21.06;50.40;100675.41;847807;23;1284;-92
2022/07/26 02:09:42;;;;;;;6.82;2.90;;;;;;;21.12;50.34;100685.03;856070;23;1902;-90
2022/07/26 02:10:16;;;;;;;7.00;3.08;;;;;;;21.03;50.35;100663.06;856100;23;1164;-92
2022/07/26 02:11:21;;;;;;;8.68;2.40;;;;;;;21.12;50.22;100662.03;848128;23;1306;-94
2022/07/26 02:11:48;;;;;;;7.43;2.50;;;;;;;21.16;50.26;100677.00;848203;23;1308;-95
2022/07/26 02:12:13;;;;;;;7.65;2.60;;;;;;;21.14;50.05;100668.19;851972;23;1519;-93
2022/07/26 02:12:57;;;;;;;4.70;2.75;;;;;;;21.14;50.19;100677.94;856689;23;1089;-93
2022/07/26 02:13:30;;;;;;;6.53;2.90;;;;;;;21.16;50.29;100669.06;848157;23;1330;-95
2022/07/26 02:13:56;;;;;;;6.68;2.85;;;;;;;21.17;50.02;100670.81;856426;23;1120;-93
2022/07/26 02:14:29;;;;;;;6.13;2.90;;;;;;;21.16;50.02;100665.50;860779;23;836;-92
2022/07/26 02:15:03;;;;;;;5.70;2.67;;;;;;;21.26;50.18;100683.00;856267;23;1312;-93
2022/07/26 02:15:26;;;;;;;5.00;2.50;;;;;;;21.24;50.03;100674.22;852343;23;1220;-93
2022/07/26 02:15:49;;;;;;;3.88;2.30;;;;;;;21.25;49.95;100675.97;852350;23;1263;-92
2022/07/26 02:16:18;;;;;;;7.13;2.63;;;;;;;21.27;49.86;100674.13;856224;23;1358;-92
2022/07/26 02:16:43;;;;;;;7.90;2.85;;;;;;;21.29;49.91;100675.00;852562;23;1482;-92
2022/07/26 02:17:09;;;;;;;6.45;3.22;;;;;;;21.27;49.87;100674.13;851932;23;1242;-93
2022/07/26 02:17:34;;;;;;;4.10;2.90;;;;;;;21.22;49.79;100662.75;856811;23;1418;-94
2022/07/26 02:18:58;;;;;;;5.07;2.50;;;;;;;21.30;49.87;100667.91;845946;23;1216;-92
2022/07/26 02:19:42;;;;;;;6.07;2.90;;;;;;;21.27;49.77;100666.19;856056;23;1177;-93
2022/07/26 02:20:20;;;;;;;4.38;2.60;;;;;;;21.22;49.92;100657.44;847875;23;1418;-92
2022/07/26 02:21:06;;;;;;;5.35;2.70;;;;;;;21.27;49.92;100671.50;856466;23;1389;-92
2022/07/26 02:21:47;;;;;;;6.68;2.97;;;;;;;21.25;49.96;100662.69;852487;23;1128;-93
2022/07/26 02:22:18;;;;;;;9.15;3.30;;;;;;;21.32;49.86;100672.28;852284;23;1386;-93
2022/07/26 02:22:54;;;;;;;5.33;2.97;;;;;;;21.31;49.87;100669.66;847890;23;1330;-91
2022/07/26 02:23:38;;;;;;;3.67;2.70;;;;;;;21.25;49.85;100660.03;855925;23;1293;-91
2022/07/26 02:24:27;;;;;;;5.90;3.30;;;;;;;21.27;49.74;100663.53;857354;23;893;-92
2022/07/26 02:24:50;;;;;;;5.10;3.20;;;;;;;21.17;49.98;100656.66;852513;23;1214;-93
2022/07/26 02:25:21;;;;;;;4.82;3.00;;;;;;;21.16;49.90;100660.22;851994;23;1128;-93
2022/07/26 02:25:55;;;;;;;5.00;3.20;;;;;;;21.21;50.18;100663.66;852534;23;1253;-93
2022/07/26 02:26:23;;;;;;;4.80;3.25;;;;;;;21.15;50.34;100663.75;844173;23;1203;-92
2022/07/26 02:26:51;;;;;;;5.35;3.20;;;;;;;21.28;49.96;100678.56;848252;23;1332;-92
2022/07/26 02:27:27;;;;;;;6.50;3.20;;;;;;;21.25;50.03;100678.59;850021;23;998;-91